Time;durP1;ratioP1;P1;durP2;ratioP2;P2;SDS_P1;SDS_P2;PMS_P1;PMS_P2;Temp;Humidity;BMP_temperature;BMP_pressure;BME280_temperature;BME280_humidity;BME280_pressure;Samples;Min_cycle;Max_cycle;Signal;HPM_P1;HPM_P2
2021/09/10 00:00:49;;;;;;;7.20;6.15;;;22.30;81.70;;;;;;2066240;28;20027;-95
2021/09/10 00:02:08;;;;;;;6.60;5.80;;;22.20;81.60;;;;;;2074194;28;20038;-95
2021/09/10 00:03:28;;;;;;;7.38;5.57;;;22.20;81.80;;;;;;2066373;28;20840;-95
2021/09/10 00:04:50;;;;;;;7.10;5.70;;;22.20;81.90;;;;;;2076247;28;20014;-95
2021/09/10 00:06:12;;;;;;;6.57;5.55;;;22.20;82.00;;;;;;2064875;28;20042;-95
2021/09/10 00:07:32;;;;;;;7.32;5.38;;;22.10;82.00;;;;;;2060932;28;20031;-95
2021/09/10 00:08:51;;;;;;;7.38;5.93;;;22.10;82.10;;;;;;2073581;28;20046;-95
2021/09/10 00:10:19;;;;;;;6.60;5.68;;;22.10;82.10;;;;;;2067046;28;20039;-95
2021/09/10 00:11:40;;;;;;;6.32;5.25;;;22.10;82.20;;;;;;2060824;28;20019;-91
2021/09/10 00:13:00;;;;;;;6.95;5.78;;;22.10;82.30;;;;;;2071904;28;20038;-92
2021/09/10 00:14:19;;;;;;;6.40;5.37;;;22.00;82.30;;;;;;2069156;28;20082;-93
2021/09/10 00:15:39;;;;;;;6.80;5.75;;;22.00;82.40;;;;;;2073816;28;20273;-94
2021/09/10 00:16:59;;;;;;;6.72;5.43;;;22.00;82.50;;;;;;2068501;28;20019;-90
2021/09/10 00:18:19;;;;;;;7.97;6.00;;;22.00;82.50;;;;;;2066355;28;20023;-95
2021/09/10 00:19:41;;;;;;;6.88;5.80;;;22.00;82.60;;;;;;2066185;28;20042;-95
2021/09/10 00:21:01;;;;;;;6.25;5.60;;;22.00;82.70;;;;;;2072898;28;20046;-96
2021/09/10 00:22:22;;;;;;;8.20;5.85;;;21.90;82.70;;;;;;2072918;28;20019;-96
2021/09/10 00:23:42;;;;;;;8.13;5.88;;;21.90;82.80;;;;;;2071832;28;20081;-96
2021/09/10 00:25:10;;;;;;;7.05;5.85;;;21.90;82.90;;;;;;2077705;28;20041;-96
2021/09/10 00:26:30;;;;;;;6.63;5.90;;;21.90;82.90;;;;;;2066094;28;20027;-95
2021/09/10 00:27:50;;;;;;;6.97;5.67;;;21.80;82.90;;;;;;2060995;28;20500;-96
2021/09/10 00:29:13;;;;;;;6.88;5.72;;;21.80;83.00;;;;;;2058909;28;20338;-96
2021/09/10 00:30:33;;;;;;;7.40;6.10;;;21.80;83.00;;;;;;2060958;28;20035;-96
2021/09/10 00:31:57;;;;;;;6.63;5.80;;;21.80;83.00;;;;;;2055992;29;20039;-96
2021/09/10 00:33:17;;;;;;;7.53;6.07;;;21.80;83.20;;;;;;2066079;28;20046;-93
2021/09/10 00:34:36;;;;;;;8.85;6.53;;;21.80;83.20;;;;;;2056655;29;20043;-94
2021/09/10 00:35:57;;;;;;;6.75;5.88;;;21.80;83.30;;;;;;2058532;28;20062;-96
2021/09/10 00:37:19;;;;;;;8.02;6.55;;;21.80;84.00;;;;;;2068703;28;20022;-95
2021/09/10 00:38:40;;;;;;;8.13;6.18;;;21.80;83.40;;;;;;2060365;28;20420;-96
2021/09/10 00:40:00;;;;;;;8.90;6.43;;;21.70;83.50;;;;;;2051356;28;20043;-95
2021/09/10 00:41:20;;;;;;;7.90;6.05;;;21.70;83.50;;;;;;2061177;28;20047;-95
2021/09/10 00:42:48;;;;;;;7.82;5.68;;;21.70;83.60;;;;;;2063782;28;20064;-94
2021/09/10 00:44:08;;;;;;;7.10;5.68;;;21.70;83.60;;;;;;2072701;28;20042;-95
2021/09/10 00:45:37;;;;;;;7.32;6.00;;;21.70;83.70;;;;;;2067696;28;20269;-95
2021/09/10 00:46:57;;;;;;;8.50;6.25;;;21.60;83.70;;;;;;2068268;28;20067;-96
2021/09/10 00:48:22;;;;;;;7.03;6.07;;;21.60;83.70;;;;;;2059729;28;20019;-96
2021/09/10 00:49:49;;;;;;;7.70;5.85;;;21.70;83.80;;;;;;2063299;28;20063;-93
2021/09/10 00:51:13;;;;;;;6.85;5.80;;;21.60;83.80;;;;;;2060950;29;20035;-95
2021/09/10 00:52:35;;;;;;;6.70;5.57;;;21.60;83.90;;;;;;2059730;29;20031;-96
2021/09/10 00:54:07;;;;;;;7.60;6.45;;;21.60;83.80;;;;;;2049520;29;20078;-95
2021/09/10 00:55:29;;;;;;;8.45;6.43;;;21.60;83.80;;;;;;2050826;29;20047;-96
2021/09/10 00:57:00;;;;;;;7.93;6.10;;;21.60;83.80;;;;;;2063044;28;20122;-96
2021/09/10 00:58:47;;;;;;;7.40;5.95;;;21.60;83.90;;;;;;2058655;28;20039;-95
2021/09/10 01:00:36;;;;;;;6.72;5.63;;;21.60;83.90;;;;;;2057315;29;20486;-96
2021/09/10 01:04:01;;;;;;;7.18;6.00;;;21.50;83.90;;;;;;2058551;28;20016;-90
2021/09/10 01:05:35;;;;;;;7.53;5.95;;;21.50;83.90;;;;;;2068832;28;20050;-91
2021/09/10 01:07:07;;;;;;;6.93;5.80;;;21.50;84.00;;;;;;2049492;29;20023;-93
2021/09/10 01:08:47;;;;;;;6.75;5.70;;;21.50;84.10;;;;;;2038265;29;20025;-94
2021/09/10 01:10:14;;;;;;;7.35;5.57;;;21.50;84.20;;;;;;2036930;29;20021;-92
2021/09/10 01:11:38;;;;;;;7.65;6.20;;;21.40;84.10;;;;;;2028865;29;20029;-94
2021/09/10 01:13:00;;;;;;;;;;;21.50;84.30;;;;;;2033887;29;20060;-96
2021/09/10 01:14:22;;;;;;;6.75;5.65;;;21.40;84.10;;;;;;2036615;29;19900;-91
2021/09/10 01:15:56;;;;;;;6.75;5.63;;;21.40;84.20;;;;;;2023537;29;20033;-93
2021/09/10 01:17:20;;;;;;;6.72;5.45;;;21.40;84.30;;;;;;2035372;29;20028;-91
2021/09/10 01:18:42;;;;;;;7.57;6.20;;;21.40;84.40;;;;;;2036905;29;20029;-93
2021/09/10 01:20:07;;;;;;;6.97;6.03;;;21.40;84.50;;;;;;2029470;29;20036;-96
2021/09/10 01:21:55;;;;;;;7.40;5.93;;;21.30;84.50;;;;;;2026777;29;20068;-95
2021/09/10 01:23:18;;;;;;;7.22;6.00;;;21.30;84.50;;;;;;2035623;29;20060;-95
2021/09/10 01:24:58;;;;;;;7.32;5.78;;;21.30;84.70;;;;;;2027999;29;20033;-95
2021/09/10 01:26:18;;;;;;;7.68;5.93;;;21.30;84.60;;;;;;2035712;29;20040;-96
2021/09/10 01:28:01;;;;;;;7.45;6.05;;;21.30;84.60;;;;;;2020034;29;20041;-96
2021/09/10 01:29:24;;;;;;;7.05;5.72;;;21.30;84.60;;;;;;2017684;29;20037;-96
2021/09/10 01:30:52;;;;;;;8.05;5.85;;;21.30;84.70;;;;;;2024349;29;20057;-95
2021/09/10 01:32:12;;;;;;;7.28;5.88;;;21.30;84.80;;;;;;2040331;29;20028;-96
2021/09/10 01:33:34;;;;;;;7.18;6.07;;;21.30;84.80;;;;;;2032997;29;20092;-94
2021/09/10 01:35:01;;;;;;;7.43;6.20;;;21.30;84.90;;;;;;2038008;29;20021;-95
2021/09/10 01:36:22;;;;;;;8.50;6.35;;;21.30;84.90;;;;;;2034880;29;20040;-95
2021/09/10 01:37:44;;;;;;;8.02;6.47;;;21.30;84.90;;;;;;2029117;29;20029;-95
2021/09/10 01:39:07;;;;;;;7.45;6.28;;;21.30;84.90;;;;;;2028311;29;20032;-95
2021/09/10 01:40:27;;;;;;;7.75;6.30;;;21.30;84.80;;;;;;2039826;29;20036;-95
2021/09/10 01:41:47;;;;;;;7.65;6.22;;;21.30;84.90;;;;;;2030873;29;20045;-95
2021/09/10 01:43:08;;;;;;;8.18;6.40;;;21.30;84.80;;;;;;2026111;29;20041;-95
2021/09/10 01:44:27;;;;;;;8.27;6.80;;;21.30;84.80;;;;;;2037920;29;20048;-95
2021/09/10 01:45:48;;;;;;;8.43;6.78;;;21.30;84.90;;;;;;2038771;29;20048;-95
2021/09/10 01:47:11;;;;;;;8.43;6.45;;;21.30;84.90;;;;;;2037395;29;20036;-95
2021/09/10 01:48:34;;;;;;;8.10;6.10;;;21.30;84.90;;;;;;2029796;29;20037;-95
2021/09/10 01:49:54;;;;;;;7.32;6.28;;;21.30;85.00;;;;;;2034057;29;20044;-95
2021/09/10 01:51:13;;;;;;;7.65;6.38;;;21.30;85.10;;;;;;2035035;29;20028;-95
2021/09/10 01:52:34;;;;;;;7.00;6.15;;;21.20;85.00;;;;;;2044160;28;20039;-95
2021/09/10 01:53:54;;;;;;;8.98;6.57;;;21.20;85.00;;;;;;2059853;28;20050;-95
2021/09/10 01:55:13;;;;;;;7.47;6.05;;;21.20;85.10;;;;;;2052121;29;20521;-96
2021/09/10 01:56:33;;;;;;;8.00;6.57;;;21.20;85.20;;;;;;2051024;29;20031;-95
2021/09/10 01:57:53;;;;;;;9.00;6.60;;;21.20;85.20;;;;;;2056606;28;20047;-95
2021/09/10 01:59:13;;;;;;;8.73;6.78;;;21.20;85.20;;;;;;2058016;28;20118;-95
2021/09/10 02:00:32;;;;;;;6.90;6.00;;;21.20;85.20;;;;;;2059155;28;20039;-95
2021/09/10 02:01:54;;;;;;;7.97;6.63;;;21.10;85.30;;;;;;2059439;28;20055;-95
2021/09/10 02:03:13;;;;;;;7.95;6.47;;;21.10;85.30;;;;;;2052048;28;20315;-96
2021/09/10 02:04:33;;;;;;;8.82;6.63;;;21.10;85.40;;;;;;2050281;29;20031;-96
2021/09/10 02:05:53;;;;;;;7.78;6.30;;;21.10;85.40;;;;;;2059677;28;20039;-95
2021/09/10 02:07:13;;;;;;;7.95;6.03;;;21.10;85.40;;;;;;2059169;28;20039;-95
2021/09/10 02:08:35;;;;;;;8.93;6.50;;;21.10;85.40;;;;;;2065322;28;20062;-90
2021/09/10 02:09:55;;;;;;;7.80;6.43;;;21.10;85.50;;;;;;2060477;28;20032;-90
2021/09/10 02:11:17;;;;;;;7.78;5.85;;;21.00;85.40;;;;;;2052545;28;20036;-90
2021/09/10 02:12:37;;;;;;;8.55;6.68;;;21.00;85.50;;;;;;2059176;28;20023;-93
2021/09/10 02:13:59;;;;;;;7.85;6.47;;;21.00;85.60;;;;;;2060329;28;20055;-93
2021/09/10 02:15:19;;;;;;;7.03;6.15;;;21.00;85.60;;;;;;2053652;28;20019;-93
2021/09/10 02:16:39;;;;;;;8.45;6.82;;;21.00;85.70;;;;;;2061743;28;20034;-92
2021/09/10 02:17:59;;;;;;;7.80;6.10;;;21.00;85.70;;;;;;2058612;28;20035;-96
2021/09/10 02:19:19;;;;;;;8.38;6.55;;;21.00;85.80;;;;;;2063636;28;20274;-93
2021/09/10 02:20:39;;;;;;;;;;;21.00;85.70;;;;;;2062751;28;20015;-94
2021/09/10 02:22:00;;;;;;;7.68;6.30;;;20.90;85.60;;;;;;2066027;28;19926;-91
2021/09/10 02:23:22;;;;;;;7.60;6.05;;;21.00;85.60;;;;;;2067626;28;20031;-95
2021/09/10 02:24:43;;;;;;;8.57;6.18;;;20.90;85.60;;;;;;2059117;29;20024;-94
2021/09/10 02:26:03;;;;;;;;;;;20.90;85.70;;;;;;2057535;29;20055;-94
2021/09/10 02:27:22;;;;;;;7.25;6.10;;;20.90;85.60;;;;;;2063226;28;19910;-96
2021/09/10 02:28:42;;;;;;;7.38;6.25;;;20.90;85.70;;;;;;2062483;28;20118;-94
2021/09/10 02:30:03;;;;;;;7.68;6.40;;;20.90;85.80;;;;;;2067555;28;20042;-94
2021/09/10 02:31:23;;;;;;;7.50;6.38;;;20.90;85.90;;;;;;2064440;28;20026;-95
2021/09/10 02:32:42;;;;;;;8.63;6.50;;;20.80;85.90;;;;;;2067110;28;20035;-94
2021/09/10 02:34:03;;;;;;;8.35;6.93;;;20.80;86.00;;;;;;2060214;28;20043;-95
2021/09/10 02:35:25;;;;;;;7.80;6.50;;;20.80;86.00;;;;;;2065128;28;20054;-93
2021/09/10 02:36:45;;;;;;;8.40;6.75;;;20.80;86.10;;;;;;2060311;28;20035;-92
2021/09/10 02:38:05;;;;;;;7.97;6.57;;;20.80;86.20;;;;;;2059241;28;20035;-93
2021/09/10 02:39:24;;;;;;;8.32;6.25;;;20.70;86.20;;;;;;2065132;28;20258;-94
2021/09/10 02:40:44;;;;;;;9.55;6.55;;;20.70;86.30;;;;;;2044532;29;20032;-89
2021/09/10 02:42:03;;;;;;;8.57;6.78;;;20.70;86.30;;;;;;2062063;28;20023;-94
2021/09/10 02:43:23;;;;;;;8.38;6.75;;;20.70;86.40;;;;;;2054622;29;20039;-95
2021/09/10 02:44:42;;;;;;;8.32;6.75;;;20.70;86.40;;;;;;2055885;28;20030;-94
2021/09/10 02:46:02;;;;;;;7.90;6.35;;;20.70;86.40;;;;;;2056814;28;20117;-96
2021/09/10 02:47:21;;;;;;;9.07;6.50;;;20.70;86.50;;;;;;2047740;29;20044;-94
2021/09/10 02:48:42;;;;;;;9.32;6.95;;;20.70;86.60;;;;;;2049229;28;20043;-95
2021/09/10 02:50:01;;;;;;;9.07;6.35;;;20.70;86.60;;;;;;2057609;28;20062;-94
2021/09/10 02:51:23;;;;;;;7.97;6.57;;;20.70;86.60;;;;;;2055513;28;20035;-94
2021/09/10 02:52:43;;;;;;;9.35;6.30;;;20.60;86.60;;;;;;2057032;28;20270;-95
2021/09/10 02:54:02;;;;;;;8.45;6.50;;;20.60;86.60;;;;;;2054190;28;20039;-95
2021/09/10 02:55:23;;;;;;;7.85;6.82;;;20.60;86.70;;;;;;2048047;28;20044;-95
2021/09/10 02:56:43;;;;;;;7.53;6.32;;;20.60;86.70;;;;;;2051525;29;20035;-94
2021/09/10 02:58:03;;;;;;;9.13;6.40;;;20.60;86.70;;;;;;2054386;28;20409;-94
2021/09/10 02:59:22;;;;;;;8.40;6.80;;;20.70;86.80;;;;;;2053669;28;20517;-95
2021/09/10 03:00:42;;;;;;;9.10;6.80;;;20.70;86.80;;;;;;2051164;28;20292;-95
2021/09/10 03:02:02;;;;;;;8.68;6.47;;;20.60;86.70;;;;;;2054446;28;20259;-95
2021/09/10 03:03:22;;;;;;;7.63;6.50;;;20.60;86.80;;;;;;2047926;29;20039;-95
2021/09/10 03:04:45;;;;;;;7.90;6.65;;;20.60;86.80;;;;;;2045904;28;20122;-95
2021/09/10 03:06:04;;;;;;;7.18;6.38;;;20.60;86.80;;;;;;2048456;29;20035;-95
2021/09/10 03:07:24;;;;;;;7.78;6.32;;;20.60;86.90;;;;;;2047647;29;20051;-95
2021/09/10 03:08:43;;;;;;;7.68;6.72;;;20.60;86.90;;;;;;2053657;28;20039;-95
2021/09/10 03:10:04;;;;;;;8.82;6.75;;;20.60;86.90;;;;;;2049521;29;20043;-95
2021/09/10 03:11:24;;;;;;;7.72;6.30;;;20.50;86.90;;;;;;2055952;28;20034;-95
2021/09/10 03:12:44;;;;;;;7.50;6.50;;;20.50;87.00;;;;;;2058234;28;20047;-95
2021/09/10 03:14:03;;;;;;;8.07;6.20;;;20.50;87.00;;;;;;2058122;28;20274;-96
2021/09/10 03:15:23;;;;;;;8.32;6.50;;;20.50;87.00;;;;;;2065522;28;20270;-94
2021/09/10 03:16:43;;;;;;;7.95;6.18;;;20.50;87.00;;;;;;2049215;29;20494;-94
2021/09/10 03:18:02;;;;;;;7.60;6.43;;;20.50;87.00;;;;;;2062903;28;20042;-94
2021/09/10 03:19:21;;;;;;;7.32;6.10;;;20.50;87.00;;;;;;2053430;28;20473;-95
2021/09/10 03:20:43;;;;;;;8.30;6.82;;;20.50;87.00;;;;;;2040032;29;20058;-94
2021/09/10 03:22:02;;;;;;;7.93;6.28;;;20.50;87.00;;;;;;2040269;29;20484;-95
2021/09/10 03:23:22;;;;;;;7.18;6.38;;;20.50;87.00;;;;;;2040530;29;20043;-94
2021/09/10 03:24:41;;;;;;;7.50;6.15;;;20.50;87.00;;;;;;2046042;29;20031;-94
2021/09/10 03:26:00;;;;;;;8.68;6.25;;;20.50;87.00;;;;;;2047077;29;20058;-93
2021/09/10 03:27:20;;;;;;;7.63;6.15;;;20.40;87.00;;;;;;2040022;29;20040;-95
2021/09/10 03:28:39;;;;;;;8.23;6.10;;;20.50;87.00;;;;;;2047636;28;20467;-94
2021/09/10 03:29:59;;;;;;;7.10;5.93;;;20.50;87.10;;;;;;2059221;28;20034;-95
2021/09/10 03:31:19;;;;;;;7.65;6.07;;;20.40;87.00;;;;;;2058723;28;20043;-95
2021/09/10 03:32:39;;;;;;;7.53;6.18;;;20.40;87.00;;;;;;2066374;28;20038;-95
2021/09/10 03:33:59;;;;;;;7.68;6.53;;;20.40;87.00;;;;;;2053000;28;20043;-94
2021/09/10 03:35:18;;;;;;;8.55;5.95;;;20.40;87.00;;;;;;2046903;28;20514;-95
2021/09/10 03:36:38;;;;;;;7.07;5.90;;;20.40;87.00;;;;;;2056826;28;20075;-94
2021/09/10 03:37:58;;;;;;;8.40;5.95;;;20.40;87.00;;;;;;2050012;29;20043;-94
2021/09/10 03:39:17;;;;;;;8.57;5.72;;;20.40;87.10;;;;;;2048628;29;20075;-95
2021/09/10 03:40:37;;;;;;;9.07;5.88;;;20.40;87.10;;;;;;2048860;29;20106;-95
2021/09/10 03:41:57;;;;;;;6.63;5.65;;;20.40;87.00;;;;;;2050602;29;20043;-95
2021/09/10 03:43:16;;;;;;;7.55;6.13;;;20.40;87.10;;;;;;2055706;28;20047;-95
2021/09/10 03:44:36;;;;;;;6.43;5.35;;;20.30;87.10;;;;;;2052256;28;20039;-94
2021/09/10 03:45:55;;;;;;;6.82;5.93;;;20.40;87.10;;;;;;2058499;28;20121;-95
2021/09/10 03:47:15;;;;;;;8.02;6.18;;;20.30;87.10;;;;;;2058348;28;20043;-94
2021/09/10 03:48:34;;;;;;;7.45;5.82;;;20.30;87.10;;;;;;2050180;29;20218;-95
2021/09/10 03:49:54;;;;;;;7.32;6.03;;;20.40;87.20;;;;;;2061512;28;20078;-95
2021/09/10 03:51:13;;;;;;;7.25;5.82;;;20.30;87.10;;;;;;2057710;28;20042;-95
2021/09/10 03:52:33;;;;;;;6.85;5.60;;;20.40;87.20;;;;;;2056215;28;20046;-95
2021/09/10 03:53:52;;;;;;;6.88;5.70;;;20.30;87.10;;;;;;2055706;28;20054;-95
2021/09/10 03:55:14;;;;;;;7.00;5.78;;;20.40;87.10;;;;;;2054471;28;20039;-94
2021/09/10 03:56:33;;;;;;;6.88;5.60;;;20.40;87.20;;;;;;2055563;28;20050;-94
2021/09/10 03:57:52;;;;;;;8.50;6.10;;;20.40;87.20;;;;;;2061875;28;20046;-94
2021/09/10 03:59:12;;;;;;;6.85;5.22;;;20.40;87.20;;;;;;2061226;28;20039;-96
2021/09/10 04:00:32;;;;;;;7.07;5.82;;;20.40;87.20;;;;;;2048373;28;20053;-95
2021/09/10 04:01:52;;;;;;;;;;;20.40;87.20;;;;;;2056052;28;20043;-95
2021/09/10 04:03:11;;;;;;;7.25;5.20;;;20.40;87.10;;;;;;2054428;28;19914;-95
2021/09/10 04:04:30;;;;;;;6.43;5.30;;;20.30;87.00;;;;;;2047177;29;20035;-95
2021/09/10 04:05:51;;;;;;;5.90;5.00;;;20.30;87.10;;;;;;2054192;28;20039;-95
2021/09/10 04:07:10;;;;;;;7.00;5.65;;;20.30;87.10;;;;;;2057245;28;20030;-94
2021/09/10 04:08:30;;;;;;;7.20;5.78;;;20.30;87.20;;;;;;2052520;28;20142;-95
2021/09/10 04:09:49;;;;;;;6.65;5.18;;;20.30;87.20;;;;;;2049990;29;20043;-94
2021/09/10 04:11:08;;;;;;;7.63;5.80;;;20.30;87.30;;;;;;2062230;28;20070;-94
2021/09/10 04:12:27;;;;;;;6.40;5.40;;;20.30;87.30;;;;;;2057574;28;20039;-95
2021/09/10 04:13:48;;;;;;;7.38;5.72;;;20.30;87.30;;;;;;2051321;28;20043;-94
2021/09/10 04:15:07;;;;;;;7.38;5.63;;;20.30;87.40;;;;;;2054731;28;20066;-93
2021/09/10 04:16:27;;;;;;;6.97;5.38;;;20.30;87.40;;;;;;2055847;28;20035;-95
2021/09/10 04:17:47;;;;;;;6.53;5.33;;;20.30;87.40;;;;;;2054916;28;20035;-94
2021/09/10 04:19:07;;;;;;;6.75;5.43;;;20.30;87.40;;;;;;2052842;28;20729;-94
2021/09/10 04:20:26;;;;;;;6.53;5.35;;;20.30;87.40;;;;;;2052887;28;20039;-94
2021/09/10 04:21:45;;;;;;;8.88;5.60;;;20.30;87.50;;;;;;2057464;28;20035;-94
2021/09/10 04:23:04;;;;;;;6.75;5.40;;;20.20;87.50;;;;;;2063600;28;20027;-95
2021/09/10 04:24:24;;;;;;;7.07;5.75;;;20.20;87.50;;;;;;2057420;28;20117;-94
2021/09/10 04:25:44;;;;;;;5.90;4.97;;;20.20;87.60;;;;;;2048424;28;20039;-94
2021/09/10 04:27:03;;;;;;;6.68;5.40;;;20.20;87.60;;;;;;2051458;28;20046;-95
2021/09/10 04:28:22;;;;;;;6.38;5.20;;;20.10;87.60;;;;;;2053897;28;20039;-94
2021/09/10 04:29:42;;;;;;;6.57;5.25;;;20.10;87.70;;;;;;2060199;28;20046;-93
2021/09/10 04:31:01;;;;;;;6.53;5.43;;;20.10;87.70;;;;;;2052607;28;20497;-95
2021/09/10 04:32:20;;;;;;;7.10;5.07;;;20.10;87.70;;;;;;2057134;28;20046;-93
2021/09/10 04:33:40;;;;;;;6.45;5.07;;;20.10;87.70;;;;;;2056867;28;20059;-94
2021/09/10 04:35:00;;;;;;;7.07;5.38;;;20.10;87.70;;;;;;2056512;28;20039;-95
2021/09/10 04:36:20;;;;;;;6.35;5.07;;;20.10;87.80;;;;;;2054689;28;20039;-95
2021/09/10 04:37:40;;;;;;;;;;;20.10;87.70;;;;;;2063709;28;20034;-95
2021/09/10 04:38:59;;;;;;;6.03;4.57;;;20.00;87.60;;;;;;2066108;28;20001;-95
2021/09/10 04:40:19;;;;;;;6.25;4.35;;;20.00;87.60;;;;;;2056641;28;20027;-94
2021/09/10 04:41:38;;;;;;;6.53;5.07;;;20.00;87.70;;;;;;2055003;28;20042;-95
2021/09/10 04:42:57;;;;;;;6.03;5.00;;;20.00;87.70;;;;;;2061102;28;20042;-94
2021/09/10 04:44:16;;;;;;;6.18;5.13;;;20.00;87.70;;;;;;2046827;29;20047;-94
2021/09/10 04:45:36;;;;;;;6.43;5.13;;;20.00;87.70;;;;;;2050276;28;20043;-94
2021/09/10 04:46:55;;;;;;;6.07;4.80;;;20.00;87.80;;;;;;2054785;28;20173;-94
2021/09/10 04:48:14;;;;;;;6.82;5.30;;;20.00;87.80;;;;;;2063335;28;20042;-93
2021/09/10 04:49:34;;;;;;;6.85;4.82;;;20.00;87.80;;;;;;2062503;28;20416;-94
2021/09/10 04:50:53;;;;;;;6.35;5.22;;;20.00;87.80;;;;;;2051730;29;20070;-93
2021/09/10 04:52:13;;;;;;;6.70;5.00;;;20.00;87.80;;;;;;2050191;29;20047;-94
2021/09/10 04:53:32;;;;;;;6.13;4.82;;;20.00;87.80;;;;;;2049541;29;20118;-93
2021/09/10 04:54:53;;;;;;;6.47;4.93;;;20.00;87.80;;;;;;2067108;28;20011;-94
2021/09/10 04:56:12;;;;;;;6.70;4.60;;;20.00;87.80;;;;;;2063458;28;20047;-90
2021/09/10 04:57:32;;;;;;;5.82;4.38;;;20.00;87.80;;;;;;2057900;28;20016;-94
2021/09/10 04:58:53;;;;;;;6.13;4.82;;;20.00;87.80;;;;;;2060450;28;20023;-92
2021/09/10 05:00:13;;;;;;;6.13;4.78;;;20.00;87.80;;;;;;2064354;28;20071;-95
2021/09/10 05:01:33;;;;;;;5.78;4.63;;;20.00;87.80;;;;;;2075310;28;20014;-92
2021/09/10 05:02:53;;;;;;;5.95;4.38;;;20.00;87.80;;;;;;2063356;28;20020;-88
2021/09/10 05:04:12;;;;;;;6.90;4.88;;;20.00;87.80;;;;;;2068852;28;20039;-92
2021/09/10 05:05:31;;;;;;;6.03;4.65;;;20.00;87.80;;;;;;2054433;28;20031;-93
2021/09/10 05:06:52;;;;;;;6.10;4.47;;;20.00;87.80;;;;;;2060916;28;20039;-92
2021/09/10 05:08:11;;;;;;;5.72;4.25;;;20.00;87.80;;;;;;2059635;28;20019;-92
2021/09/10 05:09:30;;;;;;;5.28;4.40;;;20.00;87.80;;;;;;2065954;28;20524;-93
2021/09/10 05:10:49;;;;;;;5.65;4.32;;;20.00;87.80;;;;;;2043467;29;20070;-92
2021/09/10 05:12:09;;;;;;;6.10;4.55;;;20.00;87.80;;;;;;2046226;29;20039;-93
2021/09/10 05:13:28;;;;;;;5.55;4.20;;;20.00;87.80;;;;;;2048858;28;20039;-91
2021/09/10 05:14:51;;;;;;;8.63;4.68;;;20.00;87.80;;;;;;2040296;29;20040;-93
2021/09/10 05:16:11;;;;;;;5.60;4.50;;;20.00;87.90;;;;;;2048978;29;20067;-93
2021/09/10 05:17:30;;;;;;;5.78;4.45;;;20.00;88.00;;;;;;2039643;29;20036;-92
2021/09/10 05:18:51;;;;;;;5.93;4.38;;;20.00;88.00;;;;;;2051551;28;20047;-92
2021/09/10 05:20:11;;;;;;;6.50;4.70;;;20.00;88.00;;;;;;2043292;29;20035;-93
2021/09/10 05:21:31;;;;;;;7.20;4.97;;;20.00;88.10;;;;;;2055116;28;20174;-92
2021/09/10 05:22:54;;;;;;;5.32;4.25;;;20.00;88.00;;;;;;2053904;28;20031;-92
2021/09/10 05:24:13;;;;;;;5.53;4.20;;;20.00;88.10;;;;;;2043037;29;20055;-92
2021/09/10 05:25:33;;;;;;;5.18;4.32;;;20.00;88.00;;;;;;2056249;28;20501;-93
2021/09/10 05:26:52;;;;;;;4.97;4.15;;;19.90;88.00;;;;;;2038239;29;20463;-91
2021/09/10 05:28:11;;;;;;;6.28;4.40;;;20.00;88.00;;;;;;2055050;28;20042;-91
2021/09/10 05:29:32;;;;;;;5.32;3.97;;;20.00;88.00;;;;;;2052075;28;20525;-92
2021/09/10 05:30:52;;;;;;;5.45;4.35;;;20.00;88.00;;;;;;2061532;28;20034;-92
2021/09/10 05:32:11;;;;;;;7.90;4.32;;;20.00;88.00;;;;;;2045953;29;20044;-93
2021/09/10 05:33:32;;;;;;;5.55;4.47;;;20.00;87.90;;;;;;2054715;28;20050;-93
2021/09/10 05:34:52;;;;;;;5.03;4.15;;;20.00;88.20;;;;;;2037338;29;20135;-93
2021/09/10 05:36:14;;;;;;;7.18;4.50;;;20.10;87.80;;;;;;2048199;28;20082;-93
2021/09/10 05:37:35;;;;;;;6.53;4.13;;;20.10;87.80;;;;;;2050742;29;20036;-92
2021/09/10 05:38:55;;;;;;;5.10;4.25;;;20.10;87.70;;;;;;2045922;28;20047;-93
2021/09/10 05:40:15;;;;;;;5.43;4.25;;;20.20;87.70;;;;;;2054227;28;20035;-93
2021/09/10 05:41:34;;;;;;;5.85;4.10;;;20.20;87.60;;;;;;2050619;29;20126;-93
2021/09/10 05:42:53;;;;;;;5.13;4.15;;;20.20;87.50;;;;;;2042961;29;20039;-93
2021/09/10 05:44:14;;;;;;;6.03;4.30;;;20.20;87.40;;;;;;2058623;28;20043;-93
2021/09/10 05:45:33;;;;;;;5.13;3.95;;;20.30;87.40;;;;;;2058215;28;20046;-93
2021/09/10 05:46:53;;;;;;;5.45;4.13;;;20.30;87.30;;;;;;2051279;28;20047;-92
2021/09/10 05:48:13;;;;;;;5.45;4.35;;;20.40;87.20;;;;;;2046142;29;20549;-94
2021/09/10 05:49:33;;;;;;;5.55;4.30;;;20.40;87.10;;;;;;2047684;29;20082;-93
2021/09/10 05:50:52;;;;;;;5.60;3.83;;;20.50;87.00;;;;;;2037952;29;20491;-93
2021/09/10 05:52:11;;;;;;;6.38;4.00;;;20.50;86.90;;;;;;2039785;29;20044;-92
2021/09/10 05:53:32;;;;;;;5.68;3.80;;;20.50;86.80;;;;;;2050754;28;20083;-92
2021/09/10 05:54:51;;;;;;;5.50;3.90;;;20.60;86.90;;;;;;2050043;29;20401;-91
2021/09/10 05:56:11;;;;;;;5.10;3.92;;;20.60;86.80;;;;;;2043404;29;20043;-92
2021/09/10 05:57:30;;;;;;;5.18;4.10;;;20.60;86.80;;;;;;2046501;29;20051;-91
2021/09/10 05:58:49;;;;;;;4.82;4.00;;;20.60;86.80;;;;;;2055357;28;20051;-93
2021/09/10 06:00:11;;;;;;;5.35;4.10;;;20.60;86.80;;;;;;2052671;28;20040;-92
2021/09/10 06:01:31;;;;;;;5.53;4.28;;;20.60;87.20;;;;;;2062118;28;20039;-92
2021/09/10 06:02:50;;;;;;;5.40;3.97;;;20.70;86.70;;;;;;2053103;28;20043;-91
2021/09/10 06:04:09;;;;;;;6.22;4.28;;;20.70;86.70;;;;;;2044708;29;20091;-92
2021/09/10 06:05:29;;;;;;;5.88;4.10;;;20.70;86.70;;;;;;2050335;29;20043;-91
2021/09/10 06:06:48;;;;;;;6.15;4.18;;;20.80;86.70;;;;;;2050284;29;20040;-92
2021/09/10 06:08:08;;;;;;;4.93;3.78;;;20.80;86.70;;;;;;2045190;29;20056;-92
2021/09/10 06:09:28;;;;;;;6.07;4.40;;;20.80;86.60;;;;;;2039851;29;20037;-93
2021/09/10 06:10:47;;;;;;;4.75;3.65;;;20.80;86.50;;;;;;2045188;29;20035;-94
2021/09/10 06:12:07;;;;;;;7.53;4.18;;;20.80;86.40;;;;;;2058284;28;20030;-93
2021/09/10 06:13:28;;;;;;;5.15;3.90;;;20.80;86.40;;;;;;2062691;28;20038;-95
2021/09/10 06:14:48;;;;;;;5.32;3.78;;;20.80;86.40;;;;;;2058532;29;20071;-95
2021/09/10 06:16:09;;;;;;;6.03;4.32;;;20.80;86.40;;;;;;2060622;28;20050;-95
2021/09/10 06:17:29;;;;;;;5.57;3.92;;;20.80;86.40;;;;;;2054112;29;20150;-95
2021/09/10 06:18:49;;;;;;;5.28;3.47;;;20.80;86.30;;;;;;2057217;28;20027;-89
2021/09/10 06:20:10;;;;;;;4.93;3.80;;;20.90;86.30;;;;;;2057379;28;20028;-92
2021/09/10 06:21:29;;;;;;;;;;;20.90;86.30;;;;;;2052623;28;20036;-92
2021/09/10 06:22:49;;;;;;;4.95;3.85;;;20.90;86.10;;;;;;2061154;28;19950;-91
2021/09/10 06:24:09;;;;;;;5.53;3.88;;;20.90;86.00;;;;;;2066435;28;20075;-91
2021/09/10 06:25:29;;;;;;;4.68;3.70;;;20.90;86.00;;;;;;2054919;28;20024;-92
2021/09/10 06:26:51;;;;;;;4.75;3.22;;;20.90;86.00;;;;;;2070387;28;20042;-89
2021/09/10 06:28:11;;;;;;;5.80;4.15;;;20.90;86.10;;;;;;2055097;28;20036;-93
2021/09/10 06:29:32;;;;;;;5.25;3.67;;;20.90;86.00;;;;;;2064176;28;20023;-93
2021/09/10 06:30:52;;;;;;;5.20;3.83;;;20.90;86.10;;;;;;2054907;28;20059;-93
2021/09/10 06:32:12;;;;;;;5.50;3.70;;;20.90;86.10;;;;;;2069837;28;20030;-94
2021/09/10 06:33:31;;;;;;;5.30;3.85;;;20.90;86.10;;;;;;2062050;28;20031;-94
2021/09/10 06:34:57;;;;;;;6.47;3.75;;;20.90;86.10;;;;;;2055982;29;20572;-95
2021/09/10 06:36:16;;;;;;;4.88;3.78;;;20.90;86.20;;;;;;2054337;28;20070;-95
2021/09/10 06:37:36;;;;;;;5.32;3.92;;;20.90;86.10;;;;;;2059113;28;20046;-94
2021/09/10 06:38:56;;;;;;;4.57;3.65;;;20.90;86.10;;;;;;2042044;29;20051;-93
2021/09/10 06:40:17;;;;;;;5.50;3.88;;;20.90;86.10;;;;;;2046312;29;20039;-94
2021/09/10 06:41:36;;;;;;;;;;;20.90;86.00;;;;;;2051066;28;20047;-95
2021/09/10 06:42:55;;;;;;;4.72;3.60;;;20.90;86.00;;;;;;2063886;28;19921;-93
2021/09/10 06:44:15;;;;;;;5.43;3.75;;;21.00;85.90;;;;;;2054744;28;20043;-93
2021/09/10 06:45:35;;;;;;;4.60;3.58;;;21.00;85.80;;;;;;2048472;29;20031;-92
2021/09/10 06:46:54;;;;;;;4.72;3.80;;;21.00;85.80;;;;;;2043165;29;20039;-92
2021/09/10 06:48:14;;;;;;;5.70;3.72;;;21.00;85.80;;;;;;2042941;29;20031;-91
2021/09/10 06:49:35;;;;;;;4.67;3.50;;;21.00;85.80;;;;;;2064184;28;20082;-93
2021/09/10 06:50:56;;;;;;;5.30;3.90;;;21.00;85.80;;;;;;2051202;28;20319;-91
2021/09/10 06:52:17;;;;;;;6.07;4.07;;;21.00;85.80;;;;;;2058676;28;20035;-92
2021/09/10 06:53:36;;;;;;;5.57;3.90;;;21.00;85.70;;;;;;2056820;28;20066;-91
2021/09/10 06:54:56;;;;;;;5.10;3.78;;;21.00;85.70;;;;;;2046258;29;20043;-92
2021/09/10 06:56:15;;;;;;;6.38;4.35;;;21.00;85.60;;;;;;2065555;28;20042;-92
2021/09/10 06:57:34;;;;;;;5.13;3.80;;;21.00;85.60;;;;;;2049689;28;20040;-94
2021/09/10 06:58:54;;;;;;;4.97;3.67;;;21.00;85.60;;;;;;2052884;28;20059;-93
2021/09/10 07:00:15;;;;;;;5.53;3.70;;;21.00;85.70;;;;;;2045184;29;20036;-94
2021/09/10 07:01:35;;;;;;;;;;;21.00;85.70;;;;;;2045219;29;20046;-96
2021/09/10 07:02:54;;;;;;;5.60;3.78;;;21.00;85.60;;;;;;2053650;28;19997;-95
2021/09/10 07:04:14;;;;;;;5.50;3.85;;;21.00;85.60;;;;;;2065551;28;20507;-93